createdAt,value
2019-01-20T00:01:12.520Z,52.56
2019-01-20T00:03:41.106Z,53.11
2019-01-20T00:06:09.766Z,53.25
2019-01-20T00:08:38.364Z,54.72
2019-01-20T00:11:07.280Z,53.03
2019-01-20T00:13:35.885Z,53.11
2019-01-20T00:16:04.826Z,54.03
2019-01-20T00:18:33.753Z,54.01
2019-01-20T00:21:02.375Z,53.46
2019-01-20T00:23:30.971Z,52.89
2019-01-20T00:25:59.561Z,53.64
2019-01-20T00:28:28.152Z,54.66
2019-01-20T00:30:56.736Z,54.66
2019-01-20T00:33:25.328Z,53.98
2019-01-20T00:35:53.899Z,53.74
2019-01-20T00:38:22.495Z,54.26
2019-01-20T00:40:51.148Z,53.93
2019-01-20T00:43:19.836Z,53.52
2019-01-20T00:45:48.427Z,53.09
2019-01-20T00:50:56.300Z,52.90
2019-01-20T00:53:24.871Z,53.04
2019-01-20T00:55:53.469Z,52.31
2019-01-20T00:58:22.291Z,52.17
2019-01-20T01:00:51.692Z,51.99
2019-01-20T01:03:21.174Z,52.12
2019-01-20T01:05:49.746Z,52.05
2019-01-20T01:08:18.329Z,52.08
2019-01-20T01:10:46.968Z,52.28
2019-01-20T01:13:15.843Z,52.73
2019-01-20T01:15:44.517Z,52.08
2019-01-20T01:18:13.095Z,51.96
2019-01-20T01:20:41.913Z,51.76
2019-01-20T01:23:29.748Z,52.24
2019-01-20T01:28:46.298Z,52.58
2019-01-20T01:31:14.861Z,53.14
2019-01-20T01:33:43.426Z,52.56
2019-01-20T01:36:14.575Z,52.17
2019-01-20T01:39:02.382Z,52.07
2019-01-20T01:41:31.236Z,52.98
2019-01-20T01:44:00.159Z,53.97
2019-01-20T01:46:28.780Z,53.26
2019-01-20T01:48:57.612Z,53.32
2019-01-20T01:51:26.197Z,53.74
2019-01-20T01:53:54.995Z,53.74
2019-01-20T01:56:23.818Z,53.59
2019-01-20T01:58:52.930Z,52.66
2019-01-20T02:01:21.801Z,52.13
2019-01-20T02:03:50.387Z,52.13
2019-01-20T02:06:19.205Z,52.17
2019-01-20T02:08:48.021Z,52.84
2019-01-20T02:11:16.605Z,52.55
2019-01-20T02:13:45.194Z,52.55
2019-01-20T02:16:13.755Z,52.83
2019-01-20T02:21:16.888Z,54.41
2019-01-20T02:23:45.589Z,54.39
2019-01-20T02:26:14.156Z,55.15
2019-01-20T02:28:42.752Z,55.02
2019-01-20T02:31:11.322Z,54.53
2019-01-20T02:33:59.190Z,54.13
2019-01-20T02:36:27.765Z,53.75
2019-01-20T02:39:15.647Z,53.00
2019-01-20T02:41:44.462Z,53.00
2019-01-20T02:44:13.281Z,53.90
2019-01-20T02:46:41.850Z,53.44
2019-01-20T02:49:10.672Z,53.54
2019-01-20T02:51:39.464Z,53.53
2019-01-20T02:54:08.053Z,53.53
2019-01-20T02:56:36.650Z,53.66
2019-01-20T02:59:05.329Z,53.91
2019-01-20T03:01:33.939Z,54.28
2019-01-20T03:04:02.513Z,53.85
2019-01-20T03:06:31.093Z,54.32
2019-01-20T03:09:00.205Z,54.40
2019-01-20T03:11:28.787Z,53.78
2019-01-20T03:16:45.264Z,54.61
2019-01-20T03:19:13.852Z,54.41
2019-01-20T03:21:42.692Z,53.97
2019-01-20T03:24:11.264Z,54.16
2019-01-20T03:26:39.844Z,53.84
2019-01-20T03:29:08.528Z,54.55
2019-01-20T03:31:37.367Z,54.18
2019-01-20T03:34:06.002Z,54.15
2019-01-20T03:36:34.602Z,54.36
2019-01-20T03:41:52.693Z,54.45
2019-01-20T03:44:21.982Z,53.75
2019-01-20T03:46:50.552Z,53.26
2019-01-20T03:49:19.168Z,54.91
2019-01-20T03:51:47.738Z,54.39
2019-01-20T03:54:16.316Z,54.72
2019-01-20T03:56:45.204Z,54.07
2019-01-20T03:59:14.040Z,53.76
2019-01-20T04:01:42.615Z,54.09
2019-01-20T04:04:11.190Z,55.03
2019-01-20T04:06:39.999Z,54.38
2019-01-20T04:09:08.644Z,55.13
2019-01-20T04:11:37.222Z,55.05
2019-01-20T04:14:06.013Z,54.67
2019-01-20T04:16:34.852Z,54.48
2019-01-20T04:19:03.791Z,54.77
2019-01-20T04:21:32.377Z,54.38
2019-01-20T04:24:20.433Z,54.58
2019-01-20T04:29:23.119Z,53.92
2019-01-20T04:31:51.629Z,53.62
2019-01-20T04:34:20.433Z,53.82
2019-01-20T04:37:09.318Z,54.13
2019-01-20T04:39:37.889Z,54.11
2019-01-20T04:42:06.479Z,54.42
2019-01-20T04:44:35.319Z,53.39
2019-01-20T04:47:03.941Z,54.27
2019-01-20T04:49:32.528Z,54.63
2019-01-20T04:52:20.364Z,55.08
2019-01-20T04:54:48.955Z,54.77
2019-01-20T04:57:20.377Z,54.51
2019-01-20T04:59:49.059Z,54.31
2019-01-20T05:02:17.641Z,53.62
2019-01-20T05:04:47.213Z,54.20
2019-01-20T05:07:16.512Z,53.97
2019-01-20T05:09:45.374Z,53.29
2019-01-20T05:12:14.197Z,53.82
2019-01-20T05:14:43.056Z,54.29
2019-01-20T05:17:11.627Z,55.41
2019-01-20T05:19:40.213Z,54.61
2019-01-20T05:22:08.803Z,54.82
2019-01-20T05:24:37.387Z,53.93
2019-01-20T05:27:05.966Z,55.28
2019-01-20T05:29:34.586Z,54.54
2019-01-20T05:32:03.168Z,55.66
2019-01-20T05:34:31.779Z,55.49
2019-01-20T05:37:00.360Z,54.74
2019-01-20T05:39:28.967Z,54.85
2019-01-20T05:41:57.569Z,53.84
2019-01-20T05:44:26.185Z,54.08
2019-01-20T05:46:54.988Z,54.68
2019-01-20T05:49:23.588Z,54.55
2019-01-20T05:51:52.436Z,55.21
2019-01-20T05:54:21.014Z,54.04
2019-01-20T05:56:49.587Z,54.64
2019-01-20T05:59:18.191Z,54.43
2019-01-20T06:01:46.798Z,54.14
2019-01-20T06:04:15.402Z,54.51
2019-01-20T06:09:31.630Z,53.88
2019-01-20T06:12:00.219Z,53.31
2019-01-20T06:14:28.808Z,54.89
2019-01-20T06:16:57.389Z,53.97
2019-01-20T06:19:25.976Z,53.59
2019-01-20T06:21:54.840Z,54.35
2019-01-20T06:24:23.435Z,53.97
2019-01-20T06:26:52.009Z,53.51
2019-01-20T06:29:20.610Z,54.48
2019-01-20T06:32:08.438Z,53.51
2019-01-20T06:37:11.837Z,54.38
2019-01-20T06:39:40.437Z,54.28
2019-01-20T06:42:09.037Z,54.65
2019-01-20T06:44:37.629Z,54.42
2019-01-20T06:47:06.228Z,54.65
2019-01-20T06:49:34.817Z,55.01
2019-01-20T06:52:03.399Z,54.55
2019-01-20T06:54:32.234Z,55.01
2019-01-20T06:57:00.835Z,54.44
2019-01-20T06:59:29.454Z,54.26
2019-01-20T07:01:58.067Z,55.12
2019-01-20T07:04:26.648Z,54.18
2019-01-20T07:06:55.227Z,54.24
2019-01-20T07:09:23.845Z,53.55
2019-01-20T07:11:52.397Z,53.78
2019-01-20T07:14:21.072Z,54.45
2019-01-20T07:16:49.732Z,54.58
2019-01-20T07:19:18.369Z,54.92
2019-01-20T07:21:47.011Z,54.05
2019-01-20T07:24:15.846Z,54.26
2019-01-20T07:26:44.555Z,54.95
2019-01-20T07:29:13.857Z,53.79
2019-01-20T07:31:42.606Z,53.75
2019-01-20T07:34:11.210Z,53.78
2019-01-20T07:36:39.793Z,55.03
2019-01-20T07:39:08.808Z,54.25
2019-01-20T07:41:37.675Z,53.48
2019-01-20T07:44:06.883Z,54.18
2019-01-20T07:49:23.337Z,53.94
2019-01-20T07:51:52.174Z,53.67
2019-01-20T07:54:21.039Z,53.30
2019-01-20T07:56:50.107Z,53.74
2019-01-20T07:59:18.965Z,54.63
2019-01-20T08:01:47.558Z,53.80
2019-01-20T08:04:16.239Z,53.99
2019-01-20T08:06:45.057Z,54.09
2019-01-20T08:11:48.554Z,53.72
2019-01-20T08:14:17.445Z,53.36
2019-01-20T08:16:46.031Z,53.65
2019-01-20T08:19:14.671Z,53.05
2019-01-20T08:21:43.345Z,53.12
2019-01-20T08:24:12.052Z,52.97
2019-01-20T08:26:40.702Z,53.10
2019-01-20T08:29:28.555Z,54.29
2019-01-20T08:31:57.649Z,53.57
2019-01-20T08:34:26.622Z,53.15
2019-01-20T08:36:55.252Z,51.73
2019-01-20T08:39:23.838Z,51.66
2019-01-20T08:41:52.420Z,51.38
2019-01-20T08:47:22.611Z,49.92
2019-01-20T08:49:51.498Z,48.29
2019-01-20T08:52:20.078Z,49.37
2019-01-20T08:54:48.859Z,47.87
2019-01-20T08:57:17.463Z,48.06
2019-01-20T08:59:46.138Z,49.21
2019-01-20T09:02:14.745Z,47.73
2019-01-20T09:04:43.328Z,48.33
2019-01-20T09:07:11.977Z,47.35
2019-01-20T09:09:40.698Z,46.66
2019-01-20T09:12:09.392Z,45.85
2019-01-20T09:14:38.071Z,45.09
2019-01-20T09:19:41.222Z,42.34
2019-01-20T09:22:09.900Z,41.63
2019-01-20T09:24:38.517Z,39.93
2019-01-20T09:27:07.218Z,39.46
2019-01-20T09:29:35.947Z,39.84
2019-01-20T09:32:05.162Z,39.40
2019-01-20T09:34:34.135Z,38.89
2019-01-20T09:37:02.782Z,39.58
2019-01-20T09:39:31.493Z,39.56
2019-01-20T09:42:00.268Z,38.12
2019-01-20T09:44:29.153Z,36.73
2019-01-20T09:46:58.008Z,34.20
2019-01-20T09:49:26.806Z,33.37
2019-01-20T09:51:55.424Z,31.87
2019-01-20T09:54:24.362Z,31.43
2019-01-20T09:56:53.012Z,29.22
2019-01-20T09:59:21.674Z,29.74
2019-01-20T10:01:50.445Z,28.12
2019-01-20T10:04:19.156Z,27.31
2019-01-20T10:06:48.040Z,26.84
2019-01-20T10:09:16.603Z,27.65
2019-01-20T10:11:45.172Z,25.97
2019-01-20T10:14:13.780Z,27.00
2019-01-20T10:16:42.342Z,27.00
2019-01-20T10:19:11.291Z,27.86
2019-01-20T10:21:39.871Z,27.55
2019-01-20T10:24:08.470Z,29.09
2019-01-20T10:26:38.886Z,28.49
2019-01-20T10:29:08.193Z,27.01
2019-01-20T10:31:56.067Z,27.47
2019-01-20T10:34:24.795Z,27.94
2019-01-20T10:36:53.719Z,27.98
2019-01-20T10:39:22.301Z,28.21
2019-01-20T10:41:50.974Z,28.67
2019-01-20T10:44:19.635Z,28.07
2019-01-20T10:46:48.228Z,28.91
2019-01-20T10:49:16.797Z,29.39
2019-01-20T10:51:45.606Z,29.43
2019-01-20T10:54:14.210Z,28.32
2019-01-20T10:56:42.853Z,28.09
2019-01-20T10:59:11.437Z,28.49
2019-01-20T11:01:59.381Z,28.25
2019-01-20T11:04:47.349Z,29.55
2019-01-20T11:07:16.341Z,31.15
2019-01-20T11:09:46.629Z,31.48
2019-01-20T11:12:15.233Z,32.63
2019-01-20T11:14:43.809Z,32.65
2019-01-20T11:17:12.458Z,33.36
2019-01-20T11:19:41.188Z,32.18
2019-01-20T11:22:10.145Z,33.07
2019-01-20T11:24:38.860Z,32.25
2019-01-20T11:27:07.481Z,31.79
2019-01-20T11:29:36.138Z,31.21
2019-01-20T11:32:04.878Z,31.75
2019-01-20T11:34:33.514Z,32.10
2019-01-20T11:37:02.319Z,33.04
2019-01-20T11:39:31.332Z,33.92
2019-01-20T11:42:00.456Z,34.03
2019-01-20T11:44:29.086Z,33.06
2019-01-20T11:46:57.675Z,33.52
2019-01-20T11:49:26.251Z,33.26
2019-01-20T11:51:55.153Z,33.44
2019-01-20T11:54:23.778Z,33.75
2019-01-20T11:56:52.376Z,35.00
2019-01-20T11:59:20.987Z,35.59
2019-01-20T12:02:09.004Z,33.86
2019-01-20T12:04:37.611Z,34.12
2019-01-20T12:07:06.208Z,34.71
2019-01-20T12:09:34.784Z,34.76
2019-01-20T12:12:03.761Z,34.97
2019-01-20T12:14:32.643Z,35.75
2019-01-20T12:17:01.533Z,35.13
2019-01-20T12:19:30.150Z,33.38
2019-01-20T12:21:58.919Z,31.64
2019-01-20T12:24:27.598Z,31.45
2019-01-20T12:26:56.231Z,30.10
2019-01-20T12:29:25.690Z,28.34
2019-01-20T12:31:54.412Z,26.34
2019-01-20T12:34:23.732Z,24.68
2019-01-20T12:36:52.345Z,23.52
2019-01-20T12:39:20.957Z,23.04
2019-01-20T12:41:49.996Z,23.43
2019-01-20T12:44:18.714Z,23.30
2019-01-20T12:46:47.321Z,22.52
2019-01-20T12:49:15.974Z,21.95
2019-01-20T12:51:44.859Z,21.75
2019-01-20T12:54:13.488Z,22.67
2019-01-20T12:56:42.109Z,21.54
2019-01-20T12:59:10.868Z,21.40
2019-01-20T13:01:39.766Z,23.06
2019-01-20T13:04:08.577Z,22.00
2019-01-20T13:06:37.206Z,21.66
2019-01-20T13:09:28.237Z,21.67
2019-01-20T13:11:56.994Z,22.00
2019-01-20T13:14:44.897Z,22.09
2019-01-20T13:17:13.569Z,22.38
2019-01-20T13:19:42.606Z,21.85
2019-01-20T13:22:11.285Z,21.18
2019-01-20T13:24:39.986Z,21.66
2019-01-20T13:27:09.286Z,23.26
2019-01-20T13:29:38.045Z,23.07
2019-01-20T13:32:06.905Z,23.07
2019-01-20T13:34:35.600Z,22.57
2019-01-20T13:37:04.355Z,22.28
2019-01-20T13:39:33.195Z,23.03
2019-01-20T13:42:01.990Z,22.75
2019-01-20T13:44:30.849Z,23.41
2019-01-20T13:46:59.701Z,22.41
2019-01-20T13:49:28.347Z,23.42
2019-01-20T13:51:57.041Z,23.19
2019-01-20T13:54:25.795Z,23.78
2019-01-20T13:56:54.502Z,24.34
2019-01-20T13:59:23.229Z,25.34
2019-01-20T14:01:52.084Z,27.27
2019-01-20T14:04:20.913Z,27.61
2019-01-20T14:09:25.769Z,29.89
2019-01-20T14:11:54.672Z,30.32
2019-01-20T14:14:23.629Z,30.05
2019-01-20T14:16:52.738Z,29.62
2019-01-20T14:19:22.005Z,29.56
2019-01-20T14:21:52.045Z,30.28
2019-01-20T14:24:20.831Z,30.78
2019-01-20T14:26:49.615Z,30.81
2019-01-20T14:29:18.625Z,31.51
2019-01-20T14:31:47.393Z,31.30
2019-01-20T14:34:15.981Z,32.34
2019-01-20T14:36:44.883Z,32.87
2019-01-20T14:39:13.663Z,33.15
2019-01-20T14:41:42.579Z,32.66
2019-01-20T14:44:11.674Z,33.08
2019-01-20T14:46:40.385Z,33.10
2019-01-20T14:49:09.136Z,33.54
2019-01-20T14:51:37.828Z,33.39
2019-01-20T14:54:06.849Z,33.77
2019-01-20T14:56:35.793Z,33.35
2019-01-20T14:59:04.638Z,33.63
2019-01-20T15:01:33.452Z,33.74
2019-01-20T15:04:02.070Z,34.85
2019-01-20T15:06:30.913Z,34.37
2019-01-20T15:08:59.881Z,35.46
2019-01-20T15:11:29.505Z,34.83
2019-01-20T15:13:58.100Z,36.37
2019-01-20T15:16:26.684Z,35.72
2019-01-20T15:18:55.271Z,35.66
2019-01-20T15:21:24.148Z,35.90
2019-01-20T15:23:52.797Z,36.20
2019-01-20T15:26:21.494Z,38.88
2019-01-20T15:28:50.115Z,38.61
2019-01-20T15:31:18.726Z,39.22
2019-01-20T15:33:47.380Z,40.06
2019-01-20T15:36:15.991Z,40.10
2019-01-20T15:38:44.668Z,39.98
2019-01-20T15:41:13.347Z,41.49
2019-01-20T15:43:42.046Z,41.13
2019-01-20T15:46:10.986Z,42.86
2019-01-20T15:48:40.578Z,41.90
2019-01-20T15:51:09.192Z,43.44
2019-01-20T15:53:37.772Z,43.79
2019-01-20T15:56:06.412Z,45.17
2019-01-20T15:58:34.986Z,45.95
2019-01-20T16:01:22.869Z,46.42
2019-01-20T16:03:51.470Z,46.76
2019-01-20T16:06:20.022Z,46.15
2019-01-20T16:08:48.658Z,47.14
2019-01-20T16:11:17.196Z,46.44
2019-01-20T16:13:45.792Z,47.58
2019-01-20T16:16:14.351Z,46.58
2019-01-20T16:18:43.021Z,47.25
2019-01-20T16:21:11.937Z,47.76
2019-01-20T16:23:40.530Z,48.04
2019-01-20T16:26:09.350Z,48.19
2019-01-20T16:28:38.411Z,48.00
2019-01-20T16:31:07.051Z,49.25
2019-01-20T16:33:36.418Z,48.98
2019-01-20T16:36:05.380Z,48.69
2019-01-20T16:38:34.182Z,49.71
2019-01-20T16:41:03.108Z,49.19
2019-01-20T16:43:32.048Z,49.21
2019-01-20T16:46:00.693Z,49.62
2019-01-20T16:48:29.293Z,49.01
2019-01-20T16:50:57.910Z,49.98
2019-01-20T16:53:26.481Z,49.06
2019-01-20T16:55:55.093Z,49.68
2019-01-20T16:58:42.911Z,49.64
2019-01-20T17:01:11.517Z,50.47
2019-01-20T17:03:40.394Z,50.03
2019-01-20T17:06:09.017Z,50.46
2019-01-20T17:08:37.608Z,51.29
2019-01-20T17:11:06.229Z,50.62
2019-01-20T17:13:34.800Z,50.71
2019-01-20T17:16:03.393Z,50.75
2019-01-20T17:18:31.988Z,50.64
2019-01-20T17:21:00.714Z,50.88
2019-01-20T17:23:29.932Z,50.46
2019-01-20T17:26:03.388Z,50.90
2019-01-20T17:28:32.784Z,51.19
2019-01-20T17:31:01.489Z,51.22
2019-01-20T17:33:30.218Z,51.30
2019-01-20T17:35:58.831Z,51.16
2019-01-20T17:38:27.412Z,51.99
2019-01-20T17:40:56.079Z,51.83
2019-01-20T17:43:43.897Z,51.53
2019-01-20T17:46:31.799Z,51.97
2019-01-20T17:49:00.718Z,51.47
2019-01-20T17:51:29.332Z,52.66
2019-01-20T17:53:57.985Z,52.01
2019-01-20T17:56:26.529Z,52.79
2019-01-20T17:58:55.440Z,53.14
2019-01-20T18:01:24.063Z,52.76
2019-01-20T18:03:53.231Z,52.20
2019-01-20T18:06:21.801Z,52.64
2019-01-20T18:08:50.464Z,53.03
2019-01-20T18:14:06.744Z,53.43
2019-01-20T18:16:35.300Z,54.19
2019-01-20T18:19:04.142Z,53.77
2019-01-20T18:21:32.720Z,52.86
2019-01-20T18:24:01.534Z,53.47
2019-01-20T18:26:31.030Z,52.88
2019-01-20T18:28:59.650Z,53.00
2019-01-20T18:31:28.609Z,53.11
2019-01-20T18:33:57.282Z,53.25
2019-01-20T18:36:25.946Z,53.25
2019-01-20T18:38:54.650Z,53.40
2019-01-20T18:43:57.884Z,53.59
2019-01-20T18:46:26.816Z,54.15
2019-01-20T18:48:58.679Z,53.47
2019-01-20T18:51:27.267Z,53.53
2019-01-20T18:53:55.884Z,53.53
2019-01-20T18:56:24.475Z,53.64
2019-01-20T18:58:53.217Z,53.78
2019-01-20T19:01:22.367Z,53.41
2019-01-20T19:03:51.168Z,53.43
2019-01-20T19:06:20.928Z,53.82
2019-01-20T19:08:49.803Z,54.10
2019-01-20T19:11:18.443Z,53.35
2019-01-20T19:13:47.100Z,53.67
2019-01-20T19:16:15.789Z,54.54
2019-01-20T19:18:44.397Z,54.00
2019-01-20T19:21:13.349Z,53.04
2019-01-20T19:23:42.051Z,53.26
2019-01-20T19:26:10.956Z,53.19
2019-01-20T19:28:39.595Z,53.31
2019-01-20T19:34:15.417Z,53.54
2019-01-20T19:36:44.123Z,54.18
2019-01-20T19:39:12.785Z,54.18
2019-01-20T19:41:41.728Z,53.60
2019-01-20T19:44:10.299Z,53.96
2019-01-20T19:46:38.977Z,53.70
2019-01-20T19:49:07.595Z,53.78
2019-01-20T19:51:36.445Z,53.59
2019-01-20T19:54:05.325Z,53.66
2019-01-20T19:56:33.999Z,53.96
2019-01-20T19:59:02.730Z,53.82
2019-01-20T20:01:31.591Z,54.10
2019-01-20T20:04:00.199Z,53.80
2019-01-20T20:06:28.777Z,54.64
2019-01-20T20:12:04.883Z,54.00
2019-01-20T20:14:33.461Z,54.46
2019-01-20T20:17:02.075Z,54.94
2019-01-20T20:19:30.656Z,53.84
2019-01-20T20:21:59.310Z,54.13
2019-01-20T20:24:27.915Z,54.52
2019-01-20T20:26:56.836Z,54.93
2019-01-20T20:29:25.854Z,54.35
2019-01-20T20:31:54.473Z,54.41
2019-01-20T20:34:23.359Z,54.03
2019-01-20T20:36:52.041Z,53.94
2019-01-20T20:39:20.651Z,54.01
2019-01-20T20:41:49.477Z,55.16
2019-01-20T20:44:18.121Z,54.34
2019-01-20T20:46:46.700Z,55.14
2019-01-20T20:49:15.364Z,54.53
2019-01-20T20:51:44.182Z,54.06
2019-01-20T20:54:12.803Z,53.89
2019-01-20T20:56:41.377Z,53.93
2019-01-20T20:59:10.254Z,53.81
2019-01-20T21:01:39.089Z,54.33
2019-01-20T21:04:07.695Z,54.52
2019-01-20T21:06:36.282Z,54.84
2019-01-20T21:09:08.434Z,54.47
2019-01-20T21:11:37.034Z,55.02
2019-01-20T21:14:06.215Z,54.73
2019-01-20T21:16:38.041Z,54.82
2019-01-20T21:19:05.421Z,54.23
2019-01-20T21:21:34.002Z,54.84
2019-01-20T21:24:02.686Z,54.66
2019-01-20T21:26:31.266Z,54.37
2019-01-20T21:29:19.145Z,54.69
2019-01-20T21:31:47.786Z,54.72
2019-01-20T21:34:16.457Z,54.77
2019-01-20T21:36:45.069Z,54.15
2019-01-20T21:39:13.735Z,54.42
2019-01-20T21:41:42.315Z,53.85
2019-01-20T21:44:11.219Z,54.22
2019-01-20T21:46:45.277Z,54.04
2019-01-20T21:49:10.140Z,54.09
2019-01-20T21:51:38.741Z,54.54
2019-01-20T21:54:07.398Z,54.53
2019-01-20T21:56:35.991Z,54.58
2019-01-20T21:59:04.592Z,54.08
2019-01-20T22:01:33.415Z,54.77
2019-01-20T22:04:01.987Z,54.53
2019-01-20T22:06:30.579Z,54.88
2019-01-20T22:09:18.466Z,54.84
2019-01-20T22:11:47.104Z,55.19
2019-01-20T22:14:15.665Z,54.44
2019-01-20T22:16:44.500Z,54.67
2019-01-20T22:19:13.089Z,54.02
2019-01-20T22:27:03.682Z,54.22
2019-01-20T22:29:32.276Z,54.11
2019-01-20T22:34:48.499Z,54.40
2019-01-20T22:37:17.071Z,54.12
2019-01-20T22:40:04.976Z,55.00
2019-01-20T22:42:33.547Z,54.42
2019-01-20T22:45:02.124Z,54.57
2019-01-20T22:47:30.935Z,54.03
2019-01-20T22:53:08.234Z,53.97
2019-01-20T22:55:36.841Z,54.08
2019-01-20T22:58:45.263Z,55.15
2019-01-20T23:01:37.049Z,54.50
2019-01-20T23:04:05.709Z,54.08
2019-01-20T23:06:34.393Z,54.01
2019-01-20T23:09:06.767Z,54.28
2019-01-20T23:11:33.758Z,54.44
2019-01-20T23:14:02.327Z,54.04
2019-01-20T23:16:30.950Z,53.90
2019-01-20T23:18:59.525Z,53.80
2019-01-20T23:21:28.137Z,53.85
2019-01-20T23:26:31.287Z,53.72
2019-01-20T23:28:59.856Z,54.09
2019-01-20T23:31:28.442Z,54.89
2019-01-20T23:33:57.042Z,54.91
2019-01-20T23:36:25.609Z,54.79
2019-01-20T23:38:54.214Z,54.09
2019-01-20T23:41:22.772Z,54.04
2019-01-20T23:43:51.402Z,55.01
2019-01-20T23:46:20.197Z,54.28
2019-01-20T23:51:23.136Z,54.23
2019-01-20T23:53:51.717Z,54.59
2019-01-20T23:56:20.287Z,54.03
2019-01-20T23:58:49.102Z,53.94
